Lamnalco Berkut — UBGH3 — position and weather

sailwx.info

Track history (hours):
 
Tides and Currents Weather Stations Pressure Air Temp Water Temp Dewpoint Dewpoint Depression Visibility Wind Speed Wind Dir Waves Ship Positions

Lamnalco Berkut

Last reported at 2018-Jan-12 13:38 UTC. Time now 2018-Jan-18 13:56 UTC.
Position N 44°40' E 037°39'.

Length 24 m; draft 4.2 m.

Type: Tug. MMSI: 273359720.

Date/timePositionNaut miles runAvg speedWind from/ knotsBaromVisibWave heightAir tempDewpointWater temp
2018-Jan-12 13:38N 44°40' E 037°39'211.4
2018-Jan-12 13:30N 44°38' E 037°39'1 1.6
2018-Jan-12 13:00N 44°37' E 037°39'0 0.2
2018-Jan-12 12:30N 44°37' E 037°39'0 0.3
2018-Jan-12 12:00N 44°37' E 037°40'2 4.2
2018-Jan-12 11:30N 44°38' E 037°37'0 0.3
2018-Jan-12 11:00N 44°38' E 037°37'0 0.3
2018-Jan-12 10:18N 44°38' E 037°37'0 0.1
2018-Jan-12 10:00N 44°38' E 037°37'0 0.0
2018-Jan-12 09:30N 44°38' E 037°37'3 0.1
2018-Jan-11 12:00N 44°40' E 037°39'2 3.7
2018-Jan-11 11:30N 44°38' E 037°38'0 0.2
2018-Jan-11 10:59N 44°38' E 037°38'0 0.5
2018-Jan-11 10:30N 44°38' E 037°38'0 0.0
2018-Jan-11 10:00N 44°38' E 037°38'0 0.0
2018-Jan-11 09:30N 44°38' E 037°38'0 0.0
2018-Jan-11 09:00N 44°38' E 037°38'0 0.3
2018-Jan-11 08:30N 44°38' E 037°38'1 1.8
2018-Jan-11 07:58N 44°37' E 037°40'0 0.0
2018-Jan-11 07:30N 44°37' E 037°40'0 0.5
2018-Jan-11 07:01N 44°37' E 037°39'2 0.2
2018-Jan-10 22:31N 44°39' E 037°38'012.4
2018-Jan-10 22:30N 44°39' E 037°38'1 1.0
2018-Jan-10 21:11N 44°38' E 037°37'1 0.1
2018-Jan-10 04:56N 44°38' E 037°38'0 0.3
2018-Jan-10 03:57N 44°38' E 037°38'0 0.3
2018-Jan-10 03:30N 44°38' E 037°38'1 0.1
2018-Jan-09 15:11N 44°38' E 037°39'1 6.2
2018-Jan-09 14:59N 44°37' E 037°40'0 0.4
2018-Jan-09 14:30N 44°37' E 037°40'0 0.4
2018-Jan-09 14:00N 44°37' E 037°39'0 0.1
2018-Jan-09 13:30N 44°37' E 037°39'2 3.7
2018-Jan-09 12:58N 44°39' E 037°40'1 0.1
2018-Jan-08 22:20N 44°39' E 037°38'2 3.8
2018-Jan-08 21:52N 44°38' E 037°37'0 0.1
2018-Jan-08 21:16N 44°38' E 037°36'0 0.1
2018-Jan-08 20:55N 44°38' E 037°36'2 0.1
2018-Jan-08 00:27N 44°38' E 037°39'1 1.2
2018-Jan-08 00:00N 44°38' E 037°38'0 0.2
2018-Jan-07 22:15N 44°38' E 037°39'1 2.7
2018-Jan-07 22:01N 44°37' E 037°40'0 0.5
2018-Jan-07 21:30N 44°37' E 037°40'0 0.5
2018-Jan-07 21:00N 44°37' E 037°40'2 0.1
2018-Jan-06 22:36N 44°39' E 037°38'2 8.8
2018-Jan-06 22:25N 44°38' E 037°37'0 0.3
2018-Jan-06 22:00N 44°38' E 037°37'0 0.1
2018-Jan-06 21:30N 44°38' E 037°37'1 0.1
2018-Jan-05 22:36N 44°38' E 037°38'1 1.5
2018-Jan-05 22:14N 44°38' E 037°38'0 0.0
2018-Jan-05 21:43N 44°38' E 037°38'0 1.1
2018-Jan-05 21:30N 44°38' E 037°38'0 0.0
2018-Jan-05 21:00N 44°38' E 037°38'1 0.1
2018-Jan-05 00:39N 44°39' E 037°38'1 4.0
2018-Jan-05 00:17N 44°38' E 037°37'0 0.0
2018-Jan-04 22:45N 44°38' E 037°37'2 3.7
2018-Jan-04 22:18N 44°38' E 037°39'1 3.5
2018-Jan-04 22:00N 44°37' E 037°40'0 0.5
2018-Jan-04 21:30N 44°37' E 037°40'0 0.4
2018-Jan-04 20:59N 44°37' E 037°40'1 0.1
2018-Jan-03 22:30N 44°38' E 037°38'0 0.5
2018-Jan-03 21:54N 44°38' E 037°38'0 0.5
2018-Jan-03 21:27N 44°38' E 037°38'2 0.1
2018-Jan-02 22:39N 44°39' E 037°39'211.6
2018-Jan-02 22:27N 44°38' E 037°37'0 0.0
2018-Jan-02 21:14N 44°38' E 037°37'  
Track history (hours):
 
Tides and Currents Weather Stations Pressure Air Temp Water Temp Dewpoint Dewpoint Depression Visibility Wind Speed Wind Dir Waves Ship Positions

Lamnalco Berkut

Last reported at 2018-Jan-12 13:38 UTC. Time now 2018-Jan-18 13:56 UTC.
Position N 44°40' E 037°39'.

Length 24 m; draft 4.2 m.

Type: Tug. MMSI: 273359720.

Date/timePositionNaut miles runAvg speedWind from/ knotsBaromVisibWave heightAir tempDewpointWater temp
2018-Jan-12 13:38N 44°40' E 037°39'211.4
2018-Jan-12 13:30N 44°38' E 037°39'1 1.6
2018-Jan-12 13:00N 44°37' E 037°39'0 0.2
2018-Jan-12 12:30N 44°37' E 037°39'0 0.3
2018-Jan-12 12:00N 44°37' E 037°40'2 4.2
2018-Jan-12 11:30N 44°38' E 037°37'0 0.3
2018-Jan-12 11:00N 44°38' E 037°37'0 0.3
2018-Jan-12 10:18N 44°38' E 037°37'0 0.1
2018-Jan-12 10:00N 44°38' E 037°37'0 0.0
2018-Jan-12 09:30N 44°38' E 037°37'3 0.1
2018-Jan-11 12:00N 44°40' E 037°39'2 3.7
2018-Jan-11 11:30N 44°38' E 037°38'0 0.2
2018-Jan-11 10:59N 44°38' E 037°38'0 0.5
2018-Jan-11 10:30N 44°38' E 037°38'0 0.0
2018-Jan-11 10:00N 44°38' E 037°38'0 0.0
2018-Jan-11 09:30N 44°38' E 037°38'0 0.0
2018-Jan-11 09:00N 44°38' E 037°38'0 0.3
2018-Jan-11 08:30N 44°38' E 037°38'1 1.8
2018-Jan-11 07:58N 44°37' E 037°40'0 0.0
2018-Jan-11 07:30N 44°37' E 037°40'0 0.5
2018-Jan-11 07:01N 44°37' E 037°39'2 0.2
2018-Jan-10 22:31N 44°39' E 037°38'012.4
2018-Jan-10 22:30N 44°39' E 037°38'1 1.0
2018-Jan-10 21:11N 44°38' E 037°37'1 0.1
2018-Jan-10 04:56N 44°38' E 037°38'0 0.3
2018-Jan-10 03:57N 44°38' E 037°38'0 0.3
2018-Jan-10 03:30N 44°38' E 037°38'1 0.1
2018-Jan-09 15:11N 44°38' E 037°39'1 6.2
2018-Jan-09 14:59N 44°37' E 037°40'0 0.4
2018-Jan-09 14:30N 44°37' E 037°40'0 0.4
2018-Jan-09 14:00N 44°37' E 037°39'0 0.1
2018-Jan-09 13:30N 44°37' E 037°39'2 3.7
2018-Jan-09 12:58N 44°39' E 037°40'1 0.1
2018-Jan-08 22:20N 44°39' E 037°38'2 3.8
2018-Jan-08 21:52N 44°38' E 037°37'0 0.1
2018-Jan-08 21:16N 44°38' E 037°36'0 0.1
2018-Jan-08 20:55N 44°38' E 037°36'2 0.1
2018-Jan-08 00:27N 44°38' E 037°39'1 1.2
2018-Jan-08 00:00N 44°38' E 037°38'0 0.2
2018-Jan-07 22:15N 44°38' E 037°39'1 2.7
2018-Jan-07 22:01N 44°37' E 037°40'0 0.5
2018-Jan-07 21:30N 44°37' E 037°40'0 0.5
2018-Jan-07 21:00N 44°37' E 037°40'2 0.1
2018-Jan-06 22:36N 44°39' E 037°38'2 8.8
2018-Jan-06 22:25N 44°38' E 037°37'0 0.3
2018-Jan-06 22:00N 44°38' E 037°37'0 0.1
2018-Jan-06 21:30N 44°38' E 037°37'1 0.1
2018-Jan-05 22:36N 44°38' E 037°38'1 1.5
2018-Jan-05 22:14N 44°38' E 037°38'0 0.0
2018-Jan-05 21:43N 44°38' E 037°38'0 1.1
2018-Jan-05 21:30N 44°38' E 037°38'0 0.0
2018-Jan-05 21:00N 44°38' E 037°38'1 0.1
2018-Jan-05 00:39N 44°39' E 037°38'1 4.0
2018-Jan-05 00:17N 44°38' E 037°37'0 0.0
2018-Jan-04 22:45N 44°38' E 037°37'2 3.7
2018-Jan-04 22:18N 44°38' E 037°39'1 3.5
2018-Jan-04 22:00N 44°37' E 037°40'0 0.5
2018-Jan-04 21:30N 44°37' E 037°40'0 0.4
2018-Jan-04 20:59N 44°37' E 037°40'1 0.1
2018-Jan-03 22:30N 44°38' E 037°38'0 0.5
2018-Jan-03 21:54N 44°38' E 037°38'0 0.5
2018-Jan-03 21:27N 44°38' E 037°38'2 0.1
2018-Jan-02 22:39N 44°39' E 037°39'211.6
2018-Jan-02 22:27N 44°38' E 037°37'0 0.0
2018-Jan-02 21:14N 44°38' E 037°37'  

Dump ship's entire track history